sensor_id;sensor_type;location;lat;lon;timestamp;temperature;humidity
22337;DHT22;14992;50.844;4.418;2023-05-18T00:01:50;11.00;99.90
22337;DHT22;14992;50.844;4.418;2023-05-18T00:04:21;11.00;99.90
22337;DHT22;14992;50.844;4.418;2023-05-18T00:06:54;10.80;99.90
22337;DHT22;14992;50.844;4.418;2023-05-18T00:09:25;10.80;99.90
22337;DHT22;14992;50.844;4.418;2023-05-18T00:11:55;10.70;99.90
22337;DHT22;14992;50.844;4.418;2023-05-18T00:14:55;10.60;99.90
22337;DHT22;14992;50.844;4.418;2023-05-18T00:17:31;10.60;99.90
22337;DHT22;14992;50.844;4.418;2023-05-18T00:20:07;10.50;99.90
22337;DHT22;14992;50.844;4.418;2023-05-18T00:22:55;10.40;99.90
22337;DHT22;14992;50.844;4.418;2023-05-18T00:25:27;10.40;99.90
22337;DHT22;14992;50.844;4.418;2023-05-18T00:27:57;10.30;99.90
22337;DHT22;14992;50.844;4.418;2023-05-18T00:30:27;10.30;99.90
22337;DHT22;14992;50.844;4.418;2023-05-18T00:32:58;10.30;99.90
22337;DHT22;14992;50.844;4.418;2023-05-18T00:35:27;10.30;99.90
22337;DHT22;14992;50.844;4.418;2023-05-18T00:38:00;10.30;99.90
22337;DHT22;14992;50.844;4.418;2023-05-18T00:40:38;10.30;99.90
22337;DHT22;14992;50.844;4.418;2023-05-18T00:43:07;10.30;99.90
22337;DHT22;14992;50.844;4.418;2023-05-18T00:45:39;10.30;99.90
22337;DHT22;14992;50.844;4.418;2023-05-18T00:48:13;10.10;99.90
22337;DHT22;14992;50.844;4.418;2023-05-18T00:50:45;10.10;99.90
22337;DHT22;14992;50.844;4.418;2023-05-18T00:56:49;10.00;99.90
22337;DHT22;14992;50.844;4.418;2023-05-18T00:59:19;9.90;99.90
22337;DHT22;14992;50.844;4.418;2023-05-18T01:01:50;9.90;99.90
22337;DHT22;14992;50.844;4.418;2023-05-18T01:04:25;9.90;99.90
22337;DHT22;14992;50.844;4.418;2023-05-18T01:06:54;9.90;99.90
22337;DHT22;14992;50.844;4.418;2023-05-18T01:09:25;9.80;99.90
22337;DHT22;14992;50.844;4.418;2023-05-18T01:12:02;9.80;99.90
22337;DHT22;14992;50.844;4.418;2023-05-18T01:14:40;9.90;99.90
22337;DHT22;14992;50.844;4.418;2023-05-18T01:17:22;9.80;99.90
22337;DHT22;14992;50.844;4.418;2023-05-18T01:20:11;9.80;99.90
22337;DHT22;14992;50.844;4.418;2023-05-18T01:23:05;9.90;99.90
22337;DHT22;14992;50.844;4.418;2023-05-18T01:25:46;9.90;99.90
22337;DHT22;14992;50.844;4.418;2023-05-18T01:28:22;9.80;99.90
22337;DHT22;14992;50.844;4.418;2023-05-18T01:30:53;9.80;99.90
22337;DHT22;14992;50.844;4.418;2023-05-18T01:33:26;9.80;99.90
22337;DHT22;14992;50.844;4.418;2023-05-18T01:36:06;9.70;99.90
22337;DHT22;14992;50.844;4.418;2023-05-18T01:38:36;9.70;99.90
22337;DHT22;14992;50.844;4.418;2023-05-18T01:41:13;9.70;99.90
22337;DHT22;14992;50.844;4.418;2023-05-18T01:43:51;9.70;99.90
22337;DHT22;14992;50.844;4.418;2023-05-18T01:46:29;9.70;99.90
22337;DHT22;14992;50.844;4.418;2023-05-18T01:49:06;9.70;99.90
22337;DHT22;14992;50.844;4.418;2023-05-18T01:51:42;9.70;99.90
22337;DHT22;14992;50.844;4.418;2023-05-18T01:54:15;9.70;99.90
22337;DHT22;14992;50.844;4.418;2023-05-18T01:56:46;9.70;99.90
22337;DHT22;14992;50.844;4.418;2023-05-18T01:59:17;9.70;99.90
22337;DHT22;14992;50.844;4.418;2023-05-18T02:01:47;9.80;99.90
22337;DHT22;14992;50.844;4.418;2023-05-18T02:04:16;9.70;99.90
22337;DHT22;14992;50.844;4.418;2023-05-18T02:06:45;9.60;99.90
22337;DHT22;14992;50.844;4.418;2023-05-18T02:09:14;9.70;99.90
22337;DHT22;14992;50.844;4.418;2023-05-18T02:11:43;9.70;99.90
22337;DHT22;14992;50.844;4.418;2023-05-18T02:14:13;9.60;99.90
22337;DHT22;14992;50.844;4.418;2023-05-18T02:16:43;9.50;99.90
22337;DHT22;14992;50.844;4.418;2023-05-18T02:19:20;9.40;99.90
22337;DHT22;14992;50.844;4.418;2023-05-18T02:21:53;9.40;99.90
22337;DHT22;14992;50.844;4.418;2023-05-18T02:24:22;9.40;99.90
22337;DHT22;14992;50.844;4.418;2023-05-18T02:26:51;9.50;99.90
22337;DHT22;14992;50.844;4.418;2023-05-18T02:29:20;9.50;99.90
22337;DHT22;14992;50.844;4.418;2023-05-18T02:31:51;9.50;99.90
22337;DHT22;14992;50.844;4.418;2023-05-18T02:34:20;9.50;99.90
22337;DHT22;14992;50.844;4.418;2023-05-18T02:36:51;9.50;99.90
22337;DHT22;14992;50.844;4.418;2023-05-18T02:39:24;9.50;99.90
22337;DHT22;14992;50.844;4.418;2023-05-18T02:41:56;9.40;99.90
22337;DHT22;14992;50.844;4.418;2023-05-18T02:44:25;9.50;99.90
22337;DHT22;14992;50.844;4.418;2023-05-18T02:46:55;9.40;99.90
22337;DHT22;14992;50.844;4.418;2023-05-18T02:49:25;9.40;99.90
22337;DHT22;14992;50.844;4.418;2023-05-18T02:51:55;9.40;99.90
22337;DHT22;14992;50.844;4.418;2023-05-18T02:54:24;9.30;99.90
22337;DHT22;14992;50.844;4.418;2023-05-18T02:56:53;9.40;99.90
22337;DHT22;14992;50.844;4.418;2023-05-18T02:59:43;9.40;99.90
22337;DHT22;14992;50.844;4.418;2023-05-18T03:02:14;9.50;99.90
22337;DHT22;14992;50.844;4.418;2023-05-18T03:04:52;9.40;99.90
22337;DHT22;14992;50.844;4.418;2023-05-18T03:07:24;9.40;99.90
22337;DHT22;14992;50.844;4.418;2023-05-18T03:09:58;9.30;99.90
22337;DHT22;14992;50.844;4.418;2023-05-18T03:12:27;9.20;99.90
22337;DHT22;14992;50.844;4.418;2023-05-18T03:14:56;9.20;99.90
22337;DHT22;14992;50.844;4.418;2023-05-18T03:17:26;9.10;99.90
22337;DHT22;14992;50.844;4.418;2023-05-18T03:19:57;9.10;99.90
22337;DHT22;14992;50.844;4.418;2023-05-18T03:22:25;9.10;99.90
22337;DHT22;14992;50.844;4.418;2023-05-18T03:24:57;9.10;99.90
22337;DHT22;14992;50.844;4.418;2023-05-18T03:27:29;9.00;99.90
22337;DHT22;14992;50.844;4.418;2023-05-18T03:30:04;9.00;99.90
22337;DHT22;14992;50.844;4.418;2023-05-18T03:32:34;9.10;99.90
22337;DHT22;14992;50.844;4.418;2023-05-18T03:35:05;8.90;99.90
22337;DHT22;14992;50.844;4.418;2023-05-18T03:37:34;9.00;99.90
22337;DHT22;14992;50.844;4.418;2023-05-18T03:40:08;9.00;99.90
22337;DHT22;14992;50.844;4.418;2023-05-18T03:42:40;8.90;99.90
22337;DHT22;14992;50.844;4.418;2023-05-18T03:45:10;8.80;99.90
22337;DHT22;14992;50.844;4.418;2023-05-18T03:47:41;8.70;99.90
22337;DHT22;14992;50.844;4.418;2023-05-18T03:50:10;8.70;99.90
22337;DHT22;14992;50.844;4.418;2023-05-18T03:52:41;8.70;99.90
22337;DHT22;14992;50.844;4.418;2023-05-18T03:58:00;8.70;99.90
22337;DHT22;14992;50.844;4.418;2023-05-18T04:00:31;8.70;99.90
22337;DHT22;14992;50.844;4.418;2023-05-18T04:03:04;8.70;99.90
22337;DHT22;14992;50.844;4.418;2023-05-18T04:05:35;8.50;99.90
22337;DHT22;14992;50.844;4.418;2023-05-18T04:08:05;8.60;99.90
22337;DHT22;14992;50.844;4.418;2023-05-18T04:10:35;8.60;99.90
22337;DHT22;14992;50.844;4.418;2023-05-18T04:13:04;8.60;99.90
22337;DHT22;14992;50.844;4.418;2023-05-18T04:15:33;8.60;99.90
22337;DHT22;14992;50.844;4.418;2023-05-18T04:18:04;8.80;99.90
22337;DHT22;14992;50.844;4.418;2023-05-18T04:20:34;8.80;99.90
22337;DHT22;14992;50.844;4.418;2023-05-18T04:23:04;8.80;99.90
22337;DHT22;14992;50.844;4.418;2023-05-18T04:25:36;8.80;99.90
22337;DHT22;14992;50.844;4.418;2023-05-18T04:28:06;8.80;99.90
22337;DHT22;14992;50.844;4.418;2023-05-18T04:30:38;8.90;99.90
22337;DHT22;14992;50.844;4.418;2023-05-18T04:33:09;8.90;99.90
22337;DHT22;14992;50.844;4.418;2023-05-18T04:35:39;8.90;99.90
22337;DHT22;14992;50.844;4.418;2023-05-18T04:38:08;8.90;99.90
22337;DHT22;14992;50.844;4.418;2023-05-18T04:40:38;9.00;99.90
22337;DHT22;14992;50.844;4.418;2023-05-18T04:43:11;9.10;99.90
22337;DHT22;14992;50.844;4.418;2023-05-18T04:45:41;9.00;99.90
22337;DHT22;14992;50.844;4.418;2023-05-18T04:48:14;8.90;99.90
22337;DHT22;14992;50.844;4.418;2023-05-18T04:50:51;8.80;99.90
22337;DHT22;14992;50.844;4.418;2023-05-18T04:53:21;8.80;99.90
22337;DHT22;14992;50.844;4.418;2023-05-18T04:55:50;8.70;99.90
22337;DHT22;14992;50.844;4.418;2023-05-18T04:58:26;8.80;99.90
22337;DHT22;14992;50.844;4.418;2023-05-18T05:01:00;8.90;99.90
22337;DHT22;14992;50.844;4.418;2023-05-18T05:03:30;9.00;99.90
22337;DHT22;14992;50.844;4.418;2023-05-18T05:06:00;9.00;99.90
22337;DHT22;14992;50.844;4.418;2023-05-18T05:08:29;9.10;99.90
22337;DHT22;14992;50.844;4.418;2023-05-18T05:10:58;9.00;99.90
22337;DHT22;14992;50.844;4.418;2023-05-18T05:13:27;9.10;99.90
22337;DHT22;14992;50.844;4.418;2023-05-18T05:15:57;9.10;99.90
22337;DHT22;14992;50.844;4.418;2023-05-18T05:18:26;9.20;99.90
22337;DHT22;14992;50.844;4.418;2023-05-18T05:20:57;9.20;99.90
22337;DHT22;14992;50.844;4.418;2023-05-18T05:23:26;9.30;99.90
22337;DHT22;14992;50.844;4.418;2023-05-18T05:25:56;9.30;99.90
22337;DHT22;14992;50.844;4.418;2023-05-18T05:28:28;9.30;99.90
22337;DHT22;14992;50.844;4.418;2023-05-18T05:30:57;9.20;99.90
22337;DHT22;14992;50.844;4.418;2023-05-18T05:33:26;9.10;99.90
22337;DHT22;14992;50.844;4.418;2023-05-18T05:35:57;9.20;99.90
22337;DHT22;14992;50.844;4.418;2023-05-18T05:38:26;9.20;99.90
22337;DHT22;14992;50.844;4.418;2023-05-18T05:40:55;9.20;99.90
22337;DHT22;14992;50.844;4.418;2023-05-18T05:43:24;9.00;99.90
22337;DHT22;14992;50.844;4.418;2023-05-18T05:45:53;9.00;99.90
22337;DHT22;14992;50.844;4.418;2023-05-18T05:48:22;9.10;99.90
22337;DHT22;14992;50.844;4.418;2023-05-18T05:50:51;9.20;99.90
22337;DHT22;14992;50.844;4.418;2023-05-18T05:53:21;9.30;99.90
22337;DHT22;14992;50.844;4.418;2023-05-18T05:55:50;9.40;99.90
22337;DHT22;14992;50.844;4.418;2023-05-18T05:58:20;9.60;99.90
22337;DHT22;14992;50.844;4.418;2023-05-18T06:00:53;9.50;99.90
22337;DHT22;14992;50.844;4.418;2023-05-18T06:03:25;9.50;99.90
22337;DHT22;14992;50.844;4.418;2023-05-18T06:05:58;9.40;99.90
22337;DHT22;14992;50.844;4.418;2023-05-18T06:08:30;9.50;99.90
22337;DHT22;14992;50.844;4.418;2023-05-18T06:10:59;9.60;99.90
22337;DHT22;14992;50.844;4.418;2023-05-18T06:13:29;9.50;99.90
22337;DHT22;14992;50.844;4.418;2023-05-18T06:15:58;9.70;99.90
22337;DHT22;14992;50.844;4.418;2023-05-18T06:18:30;9.60;99.90
22337;DHT22;14992;50.844;4.418;2023-05-18T06:21:03;9.70;99.90
22337;DHT22;14992;50.844;4.418;2023-05-18T06:23:34;9.80;99.90
22337;DHT22;14992;50.844;4.418;2023-05-18T06:26:11;9.80;99.90
22337;DHT22;14992;50.844;4.418;2023-05-18T06:29:07;9.80;99.90
22337;DHT22;14992;50.844;4.418;2023-05-18T06:31:54;9.70;99.90
22337;DHT22;14992;50.844;4.418;2023-05-18T06:34:34;9.80;99.90
22337;DHT22;14992;50.844;4.418;2023-05-18T06:37:05;9.70;99.90
22337;DHT22;14992;50.844;4.418;2023-05-18T06:39:35;9.80;99.90
22337;DHT22;14992;50.844;4.418;2023-05-18T06:42:05;9.80;99.90
22337;DHT22;14992;50.844;4.418;2023-05-18T06:44:34;9.90;99.90
22337;DHT22;14992;50.844;4.418;2023-05-18T06:47:12;9.70;99.90
22337;DHT22;14992;50.844;4.418;2023-05-18T06:49:41;9.70;99.90
22337;DHT22;14992;50.844;4.418;2023-05-18T06:52:10;9.80;99.90
22337;DHT22;14992;50.844;4.418;2023-05-18T06:54:43;9.90;99.90
22337;DHT22;14992;50.844;4.418;2023-05-18T06:57:13;9.90;99.90
22337;DHT22;14992;50.844;4.418;2023-05-18T06:59:42;10.10;99.90
22337;DHT22;14992;50.844;4.418;2023-05-18T07:02:11;10.10;99.90
22337;DHT22;14992;50.844;4.418;2023-05-18T07:04:41;10.30;99.90
22337;DHT22;14992;50.844;4.418;2023-05-18T07:07:10;10.30;99.90
22337;DHT22;14992;50.844;4.418;2023-05-18T07:09:39;10.20;99.90
22337;DHT22;14992;50.844;4.418;2023-05-18T07:12:11;10.20;99.90
22337;DHT22;14992;50.844;4.418;2023-05-18T07:14:43;10.30;99.90
22337;DHT22;14992;50.844;4.418;2023-05-18T07:17:12;10.70;99.90
22337;DHT22;14992;50.844;4.418;2023-05-18T07:19:41;10.80;99.90
22337;DHT22;14992;50.844;4.418;2023-05-18T07:22:10;10.90;99.90
22337;DHT22;14992;50.844;4.418;2023-05-18T07:24:39;11.00;99.90
22337;DHT22;14992;50.844;4.418;2023-05-18T07:27:08;11.00;99.90
22337;DHT22;14992;50.844;4.418;2023-05-18T07:29:38;11.00;99.90
22337;DHT22;14992;50.844;4.418;2023-05-18T07:32:07;11.10;99.90
22337;DHT22;14992;50.844;4.418;2023-05-18T07:34:36;11.00;99.90
22337;DHT22;14992;50.844;4.418;2023-05-18T07:37:05;10.90;99.90
22337;DHT22;14992;50.844;4.418;2023-05-18T07:39:34;11.10;99.90
22337;DHT22;14992;50.844;4.418;2023-05-18T07:42:04;11.30;99.90
22337;DHT22;14992;50.844;4.418;2023-05-18T07:44:33;11.40;99.90
22337;DHT22;14992;50.844;4.418;2023-05-18T07:47:04;11.20;99.90
22337;DHT22;14992;50.844;4.418;2023-05-18T07:49:34;11.20;99.90
22337;DHT22;14992;50.844;4.418;2023-05-18T07:52:06;11.20;99.90
22337;DHT22;14992;50.844;4.418;2023-05-18T07:54:35;11.40;99.90
22337;DHT22;14992;50.844;4.418;2023-05-18T07:57:05;11.30;99.90
22337;DHT22;14992;50.844;4.418;2023-05-18T07:59:34;11.40;99.90
22337;DHT22;14992;50.844;4.418;2023-05-18T08:02:04;11.40;99.90
22337;DHT22;14992;50.844;4.418;2023-05-18T08:04:34;11.40;99.90
22337;DHT22;14992;50.844;4.418;2023-05-18T08:07:03;11.40;99.90
22337;DHT22;14992;50.844;4.418;2023-05-18T08:09:32;11.50;99.90
22337;DHT22;14992;50.844;4.418;2023-05-18T08:12:01;11.70;99.90
22337;DHT22;14992;50.844;4.418;2023-05-18T08:14:30;11.70;99.90
22337;DHT22;14992;50.844;4.418;2023-05-18T08:16:59;11.60;99.90
22337;DHT22;14992;50.844;4.418;2023-05-18T08:19:30;11.60;99.90
22337;DHT22;14992;50.844;4.418;2023-05-18T08:21:59;11.80;99.90
22337;DHT22;14992;50.844;4.418;2023-05-18T08:24:28;11.90;99.90
22337;DHT22;14992;50.844;4.418;2023-05-18T08:27:00;12.00;99.90
22337;DHT22;14992;50.844;4.418;2023-05-18T08:29:30;12.30;99.90
22337;DHT22;14992;50.844;4.418;2023-05-18T08:32:03;12.20;99.90
22337;DHT22;14992;50.844;4.418;2023-05-18T08:34:37;12.10;99.90
22337;DHT22;14992;50.844;4.418;2023-05-18T08:37:06;12.20;99.90
22337;DHT22;14992;50.844;4.418;2023-05-18T08:39:39;12.30;99.90
22337;DHT22;14992;50.844;4.418;2023-05-18T08:42:14;12.40;99.90
22337;DHT22;14992;50.844;4.418;2023-05-18T08:44:47;12.50;99.90
22337;DHT22;14992;50.844;4.418;2023-05-18T08:47:18;12.60;99.90
22337;DHT22;14992;50.844;4.418;2023-05-18T08:49:55;12.60;99.90
22337;DHT22;14992;50.844;4.418;2023-05-18T08:52:26;12.90;99.90
22337;DHT22;14992;50.844;4.418;2023-05-18T08:55:00;12.80;99.90
22337;DHT22;14992;50.844;4.418;2023-05-18T08:57:32;12.80;99.90
22337;DHT22;14992;50.844;4.418;2023-05-18T09:00:04;13.10;99.90
22337;DHT22;14992;50.844;4.418;2023-05-18T09:02:35;13.10;99.90
22337;DHT22;14992;50.844;4.418;2023-05-18T09:05:06;13.30;99.90
22337;DHT22;14992;50.844;4.418;2023-05-18T09:07:36;13.30;99.90
22337;DHT22;14992;50.844;4.418;2023-05-18T09:10:07;13.20;99.90
22337;DHT22;14992;50.844;4.418;2023-05-18T09:12:38;13.20;99.90
22337;DHT22;14992;50.844;4.418;2023-05-18T09:15:09;13.30;99.90
22337;DHT22;14992;50.844;4.418;2023-05-18T09:17:39;13.40;99.90
22337;DHT22;14992;50.844;4.418;2023-05-18T09:20:09;13.20;99.90
22337;DHT22;14992;50.844;4.418;2023-05-18T09:22:40;13.30;99.90
22337;DHT22;14992;50.844;4.418;2023-05-18T09:25:09;13.30;99.90
22337;DHT22;14992;50.844;4.418;2023-05-18T09:27:39;13.40;99.90
22337;DHT22;14992;50.844;4.418;2023-05-18T09:30:10;13.50;99.90
22337;DHT22;14992;50.844;4.418;2023-05-18T09:32:45;13.50;99.90
22337;DHT22;14992;50.844;4.418;2023-05-18T09:35:16;13.70;99.90
22337;DHT22;14992;50.844;4.418;2023-05-18T09:37:45;13.80;99.90
22337;DHT22;14992;50.844;4.418;2023-05-18T09:40:15;14.10;99.90
22337;DHT22;14992;50.844;4.418;2023-05-18T09:42:46;14.30;99.90
22337;DHT22;14992;50.844;4.418;2023-05-18T09:45:17;14.60;99.90
22337;DHT22;14992;50.844;4.418;2023-05-18T09:47:49;14.50;99.90
22337;DHT22;14992;50.844;4.418;2023-05-18T09:50:20;14.60;99.90
22337;DHT22;14992;50.844;4.418;2023-05-18T09:52:50;14.70;99.90
22337;DHT22;14992;50.844;4.418;2023-05-18T09:55:19;14.90;99.90
22337;DHT22;14992;50.844;4.418;2023-05-18T09:57:49;15.00;99.90
22337;DHT22;14992;50.844;4.418;2023-05-18T10:00:19;15.00;99.90
22337;DHT22;14992;50.844;4.418;2023-05-18T10:02:52;15.40;99.90
22337;DHT22;14992;50.844;4.418;2023-05-18T10:05:23;15.70;99.90
22337;DHT22;14992;50.844;4.418;2023-05-18T10:07:55;15.80;99.90
22337;DHT22;14992;50.844;4.418;2023-05-18T10:10:26;15.70;99.90
22337;DHT22;14992;50.844;4.418;2023-05-18T10:12:56;15.90;99.90
22337;DHT22;14992;50.844;4.418;2023-05-18T10:15:25;15.90;99.90
22337;DHT22;14992;50.844;4.418;2023-05-18T10:17:56;15.80;99.90
22337;DHT22;14992;50.844;4.418;2023-05-18T10:20:28;15.90;99.90
22337;DHT22;14992;50.844;4.418;2023-05-18T10:22:59;15.90;99.90
22337;DHT22;14992;50.844;4.418;2023-05-18T10:25:33;16.20;99.90
22337;DHT22;14992;50.844;4.418;2023-05-18T10:28:06;16.10;99.90
22337;DHT22;14992;50.844;4.418;2023-05-18T10:30:35;15.90;99.90
22337;DHT22;14992;50.844;4.418;2023-05-18T10:33:06;16.00;99.90
22337;DHT22;14992;50.844;4.418;2023-05-18T10:35:56;16.10;99.70
22337;DHT22;14992;50.844;4.418;2023-05-18T10:38:27;16.50;98.00
22337;DHT22;14992;50.844;4.418;2023-05-18T10:40:57;16.80;96.20
22337;DHT22;14992;50.844;4.418;2023-05-18T10:43:27;16.60;97.30
22337;DHT22;14992;50.844;4.418;2023-05-18T10:45:57;16.40;97.00
22337;DHT22;14992;50.844;4.418;2023-05-18T10:48:28;16.50;97.10
22337;DHT22;14992;50.844;4.418;2023-05-18T10:50:59;16.50;96.30
22337;DHT22;14992;50.844;4.418;2023-05-18T10:53:32;16.90;96.30
22337;DHT22;14992;50.844;4.418;2023-05-18T10:56:01;17.00;95.70
22337;DHT22;14992;50.844;4.418;2023-05-18T10:58:30;17.10;96.00
22337;DHT22;14992;50.844;4.418;2023-05-18T11:01:01;17.00;95.70
22337;DHT22;14992;50.844;4.418;2023-05-18T11:03:32;17.10;94.90
22337;DHT22;14992;50.844;4.418;2023-05-18T11:06:05;17.10;94.50
22337;DHT22;14992;50.844;4.418;2023-05-18T11:08:41;16.80;96.70
22337;DHT22;14992;50.844;4.418;2023-05-18T11:11:12;17.10;95.70
22337;DHT22;14992;50.844;4.418;2023-05-18T11:13:47;17.70;93.10
22337;DHT22;14992;50.844;4.418;2023-05-18T11:16:19;17.80;91.90
22337;DHT22;14992;50.844;4.418;2023-05-18T11:18:49;17.80;91.70
22337;DHT22;14992;50.844;4.418;2023-05-18T11:21:50;18.00;91.60
22337;DHT22;14992;50.844;4.418;2023-05-18T11:24:37;17.90;91.90
22337;DHT22;14992;50.844;4.418;2023-05-18T11:27:13;17.80;92.00
22337;DHT22;14992;50.844;4.418;2023-05-18T11:29:44;17.80;93.00
22337;DHT22;14992;50.844;4.418;2023-05-18T11:32:23;17.40;94.80
22337;DHT22;14992;50.844;4.418;2023-05-18T11:34:58;17.10;96.50
22337;DHT22;14992;50.844;4.418;2023-05-18T11:37:51;17.00;96.60
22337;DHT22;14992;50.844;4.418;2023-05-18T11:40:45;17.20;96.40
22337;DHT22;14992;50.844;4.418;2023-05-18T11:43:20;17.40;95.50
22337;DHT22;14992;50.844;4.418;2023-05-18T11:45:52;17.00;96.30
22337;DHT22;14992;50.844;4.418;2023-05-18T11:48:26;17.10;96.40
22337;DHT22;14992;50.844;4.418;2023-05-18T11:50:56;17.30;96.00
22337;DHT22;14992;50.844;4.418;2023-05-18T11:53:29;17.50;94.20
22337;DHT22;14992;50.844;4.418;2023-05-18T11:55:58;17.60;93.30
22337;DHT22;14992;50.844;4.418;2023-05-18T11:58:29;17.70;93.10
22337;DHT22;14992;50.844;4.418;2023-05-18T12:00:58;18.00;92.40
22337;DHT22;14992;50.844;4.418;2023-05-18T12:03:29;17.90;91.80
22337;DHT22;14992;50.844;4.418;2023-05-18T12:05:59;17.40;91.60
22337;DHT22;14992;50.844;4.418;2023-05-18T12:08:30;17.20;92.30
22337;DHT22;14992;50.844;4.418;2023-05-18T12:11:00;17.00;92.40
22337;DHT22;14992;50.844;4.418;2023-05-18T12:13:29;16.90;91.00
22337;DHT22;14992;50.844;4.418;2023-05-18T12:15:58;16.80;90.90
22337;DHT22;14992;50.844;4.418;2023-05-18T12:18:28;16.60;92.60
22337;DHT22;14992;50.844;4.418;2023-05-18T12:21:03;16.60;93.30
22337;DHT22;14992;50.844;4.418;2023-05-18T12:23:38;16.90;91.90
22337;DHT22;14992;50.844;4.418;2023-05-18T12:26:07;17.00;92.90
22337;DHT22;14992;50.844;4.418;2023-05-18T12:28:36;17.10;93.30
22337;DHT22;14992;50.844;4.418;2023-05-18T12:31:05;17.20;93.40
22337;DHT22;14992;50.844;4.418;2023-05-18T12:33:35;17.30;93.00
22337;DHT22;14992;50.844;4.418;2023-05-18T12:36:09;17.50;92.80
22337;DHT22;14992;50.844;4.418;2023-05-18T12:38:39;17.50;91.00
22337;DHT22;14992;50.844;4.418;2023-05-18T12:41:08;17.30;91.50
22337;DHT22;14992;50.844;4.418;2023-05-18T12:43:37;17.00;92.00
22337;DHT22;14992;50.844;4.418;2023-05-18T12:46:07;17.00;92.80
22337;DHT22;14992;50.844;4.418;2023-05-18T12:48:37;17.20;90.90
22337;DHT22;14992;50.844;4.418;2023-05-18T12:51:16;17.40;90.80
22337;DHT22;14992;50.844;4.418;2023-05-18T12:53:48;17.50;91.00
22337;DHT22;14992;50.844;4.418;2023-05-18T12:56:18;17.50;90.60
22337;DHT22;14992;50.844;4.418;2023-05-18T12:58:55;17.40;90.70
22337;DHT22;14992;50.844;4.418;2023-05-18T13:01:27;17.40;90.60
22337;DHT22;14992;50.844;4.418;2023-05-18T13:03:57;17.40;90.50
22337;DHT22;14992;50.844;4.418;2023-05-18T13:06:27;17.60;90.30
22337;DHT22;14992;50.844;4.418;2023-05-18T13:08:57;17.50;91.30
22337;DHT22;14992;50.844;4.418;2023-05-18T13:11:26;17.50;91.00
22337;DHT22;14992;50.844;4.418;2023-05-18T13:13:57;17.40;91.20
22337;DHT22;14992;50.844;4.418;2023-05-18T13:16:26;17.50;91.20
22337;DHT22;14992;50.844;4.418;2023-05-18T13:18:58;17.90;90.50
22337;DHT22;14992;50.844;4.418;2023-05-18T13:21:28;18.00;90.10
22337;DHT22;14992;50.844;4.418;2023-05-18T13:23:58;18.00;90.20
22337;DHT22;14992;50.844;4.418;2023-05-18T13:26:27;18.10;90.20
22337;DHT22;14992;50.844;4.418;2023-05-18T13:28:57;18.20;90.00
22337;DHT22;14992;50.844;4.418;2023-05-18T13:31:27;18.20;89.60
22337;DHT22;14992;50.844;4.418;2023-05-18T13:33:57;18.00;90.60
22337;DHT22;14992;50.844;4.418;2023-05-18T13:36:25;18.10;88.90
22337;DHT22;14992;50.844;4.418;2023-05-18T13:38:57;18.20;87.80
22337;DHT22;14992;50.844;4.418;2023-05-18T13:41:26;18.30;87.70
22337;DHT22;14992;50.844;4.418;2023-05-18T13:43:55;18.40;86.50
22337;DHT22;14992;50.844;4.418;2023-05-18T13:46:24;18.40;87.80
22337;DHT22;14992;50.844;4.418;2023-05-18T13:48:53;18.50;87.40
22337;DHT22;14992;50.844;4.418;2023-05-18T13:51:22;18.40;87.00
22337;DHT22;14992;50.844;4.418;2023-05-18T13:53:51;18.50;86.70
22337;DHT22;14992;50.844;4.418;2023-05-18T13:56:21;18.30;86.60
22337;DHT22;14992;50.844;4.418;2023-05-18T13:58:50;18.40;85.70
22337;DHT22;14992;50.844;4.418;2023-05-18T14:01:19;17.90;86.90
22337;DHT22;14992;50.844;4.418;2023-05-18T14:03:48;17.90;88.40
22337;DHT22;14992;50.844;4.418;2023-05-18T14:06:17;18.10;86.10
22337;DHT22;14992;50.844;4.418;2023-05-18T14:08:47;18.30;85.30
22337;DHT22;14992;50.844;4.418;2023-05-18T14:11:16;18.50;84.50
22337;DHT22;14992;50.844;4.418;2023-05-18T14:13:46;18.60;84.90
22337;DHT22;14992;50.844;4.418;2023-05-18T14:16:16;18.60;84.90
22337;DHT22;14992;50.844;4.418;2023-05-18T14:18:45;18.50;82.30
22337;DHT22;14992;50.844;4.418;2023-05-18T14:21:15;18.50;81.40
22337;DHT22;14992;50.844;4.418;2023-05-18T14:23:44;18.50;81.20
22337;DHT22;14992;50.844;4.418;2023-05-18T14:26:14;18.40;81.90
22337;DHT22;14992;50.844;4.418;2023-05-18T14:28:45;18.30;83.60
22337;DHT22;14992;50.844;4.418;2023-05-18T14:31:14;18.30;84.70
22337;DHT22;14992;50.844;4.418;2023-05-18T14:33:43;18.30;86.00
22337;DHT22;14992;50.844;4.418;2023-05-18T14:36:12;18.50;85.70
22337;DHT22;14992;50.844;4.418;2023-05-18T14:38:41;18.40;85.70
22337;DHT22;14992;50.844;4.418;2023-05-18T14:41:12;18.40;86.70
22337;DHT22;14992;50.844;4.418;2023-05-18T14:43:41;18.20;86.90
22337;DHT22;14992;50.844;4.418;2023-05-18T14:46:13;18.20;86.50
22337;DHT22;14992;50.844;4.418;2023-05-18T14:48:42;18.30;85.20
22337;DHT22;14992;50.844;4.418;2023-05-18T14:51:12;18.30;85.30
22337;DHT22;14992;50.844;4.418;2023-05-18T14:53:42;18.30;86.60
22337;DHT22;14992;50.844;4.418;2023-05-18T14:56:11;18.20;87.80
22337;DHT22;14992;50.844;4.418;2023-05-18T14:58:40;18.00;90.10
22337;DHT22;14992;50.844;4.418;2023-05-18T15:01:09;18.20;90.20
22337;DHT22;14992;50.844;4.418;2023-05-18T15:03:43;18.00;90.60
22337;DHT22;14992;50.844;4.418;2023-05-18T15:06:12;18.20;90.20
22337;DHT22;14992;50.844;4.418;2023-05-18T15:08:41;18.10;90.00
22337;DHT22;14992;50.844;4.418;2023-05-18T15:11:11;17.90;90.20
22337;DHT22;14992;50.844;4.418;2023-05-18T15:13:40;17.60;90.60
22337;DHT22;14992;50.844;4.418;2023-05-18T15:16:10;17.50;91.30
22337;DHT22;14992;50.844;4.418;2023-05-18T15:18:42;17.80;91.50
22337;DHT22;14992;50.844;4.418;2023-05-18T15:21:12;18.00;90.30
22337;DHT22;14992;50.844;4.418;2023-05-18T15:23:41;18.20;89.30
22337;DHT22;14992;50.844;4.418;2023-05-18T15:26:10;18.50;89.90
22337;DHT22;14992;50.844;4.418;2023-05-18T15:28:39;18.60;87.40
22337;DHT22;14992;50.844;4.418;2023-05-18T15:31:11;18.50;86.90
22337;DHT22;14992;50.844;4.418;2023-05-18T15:33:40;18.50;86.70
22337;DHT22;14992;50.844;4.418;2023-05-18T15:36:11;18.70;84.50
22337;DHT22;14992;50.844;4.418;2023-05-18T15:38:40;18.60;83.90
22337;DHT22;14992;50.844;4.418;2023-05-18T15:41:09;18.50;85.00
22337;DHT22;14992;50.844;4.418;2023-05-18T15:43:38;18.50;86.80
22337;DHT22;14992;50.844;4.418;2023-05-18T15:46:08;18.40;85.00
22337;DHT22;14992;50.844;4.418;2023-05-18T15:48:37;18.40;85.90
22337;DHT22;14992;50.844;4.418;2023-05-18T15:51:06;18.20;88.70
22337;DHT22;14992;50.844;4.418;2023-05-18T15:53:36;18.30;88.50
22337;DHT22;14992;50.844;4.418;2023-05-18T15:56:06;18.10;88.10
22337;DHT22;14992;50.844;4.418;2023-05-18T15:58:35;18.00;89.00
22337;DHT22;14992;50.844;4.418;2023-05-18T16:01:04;18.10;88.90
22337;DHT22;14992;50.844;4.418;2023-05-18T16:03:33;18.30;86.80
22337;DHT22;14992;50.844;4.418;2023-05-18T16:06:03;18.60;85.00
22337;DHT22;14992;50.844;4.418;2023-05-18T16:08:32;19.00;83.40
22337;DHT22;14992;50.844;4.418;2023-05-18T16:11:02;18.80;81.10